ENQC

Troll C Platform Heliport

Norway
METAR ENQC 200650Z AUTO 16023KT 9999NDV BKN029/// BKN130/// 04/M02 Q1022 W///S4
Observed Flight Rules
Feb-20 @ 06:50 UTC (28 minutes ago)
Wind Clouds
160° at 23 knots
  • Broken at 2,900' AGL
  • Broken at 13,000' AGL
Temperatures Readings
Current 4°C / 39°F
Dewpoint -2°C / 28°F
Humidity 65%
Altimeter 30.18" Hg
Pressure 1022 hPa
Elevation 20
METAR ENQC 200650Z AUTO 16023KT 9999NDV BKN029/// BKN130/// 04/M02 Q1022 W///S4
Observed Flight Rules
Feb-20 @ 06:50 UTC
(28 minutes ago)
Wind
160° at 23 knots
Clouds
  • Broken at 2,900' AGL
  • Broken at 13,000' AGL
Temperature Dewpoint
4°C / 39°F -2°C / 28°F
Humidity Altimeter Pressure
65% 30.18" Hg 1022 hPa